Terminal Aerodrome Forecast
Issued by NWS

Home | Current Version | Previous Version | Text Only | Print | Product List | Glossary On
Versions: 1 2 3 4 5 6 7 8 9 10 11 12 13 14 15 16 17 18 19
000
FTAK31 PAJN 282340
TAFASI
TAF
PASI 282340Z 2900/2924 11008KT P6SM VCSH BKN035
      TEMPO 2900/2902 5SM -SHRA BKN025 OVC035
     FM290300 VRB06KT P6SM BKN050
     FM291800 34008KT P6SM SCT050=

USA.gov is the U.S. government's official web portal to all federal, state and local government web resources and services.